createdAt,value
2023-04-17T00:00:21.865Z,94618.83
2023-04-17T00:02:50.785Z,94619.20
2023-04-17T00:05:21.311Z,94617.28
2023-04-17T00:07:50.273Z,94610.24
2023-04-17T00:10:18.987Z,94609.88
2023-04-17T00:12:47.633Z,94614.61
2023-04-17T00:15:16.404Z,94613.70
2023-04-17T00:17:46.689Z,94606.87
2023-04-17T00:20:15.348Z,94602.70
2023-04-17T00:22:44.103Z,94604.59
2023-04-17T00:25:14.457Z,94590.16
2023-04-17T00:27:43.923Z,94603.48
2023-04-17T00:30:12.904Z,94597.36
2023-04-17T00:32:41.671Z,94599.89
2023-04-17T00:35:10.859Z,94604.45
2023-04-17T00:37:39.624Z,94606.59
2023-04-17T00:40:09.320Z,94606.78
2023-04-17T00:42:38.006Z,94604.31
2023-04-17T00:45:11.400Z,94597.86
2023-04-17T00:47:40.885Z,94596.89
2023-04-17T00:50:10.785Z,94597.09
2023-04-17T00:52:39.583Z,94597.30
2023-04-17T00:55:09.402Z,94596.34
2023-04-17T00:57:38.590Z,94595.38
2023-04-17T01:00:09.654Z,94591.20
2023-04-17T01:02:40.652Z,94588.54
2023-04-17T01:05:10.340Z,94588.91
2023-04-17T01:07:41.476Z,94583.59
2023-04-17T01:10:10.847Z,94584.35
2023-04-17T01:12:40.524Z,94584.33
2023-04-17T01:15:11.635Z,94580.91
2023-04-17T01:17:40.342Z,94584.91
2023-04-17T01:20:11.652Z,94579.00
2023-04-17T01:22:41.755Z,94581.10
2023-04-17T01:25:10.684Z,94580.52
2023-04-17T01:27:39.519Z,94582.23
2023-04-17T01:30:09.693Z,94577.48
2023-04-17T01:32:39.938Z,94583.59
2023-04-17T01:35:08.837Z,94585.88
2023-04-17T01:37:37.600Z,94584.34
2023-04-17T01:40:08.319Z,94580.91
2023-04-17T01:42:37.092Z,94579.95
2023-04-17T01:45:06.875Z,94568.73
2023-04-17T01:47:35.632Z,94571.39
2023-04-17T01:50:04.449Z,94572.53
2023-04-17T01:52:33.230Z,94568.55
2023-04-17T01:55:02.758Z,94567.03
2023-04-17T01:57:31.556Z,94565.52
2023-04-17T02:00:00.394Z,94570.25
2023-04-17T02:02:29.127Z,94565.50
2023-04-17T02:04:57.904Z,94563.22
2023-04-17T02:07:28.351Z,94564.18
2023-04-17T02:09:57.003Z,94556.94
2023-04-17T02:12:28.227Z,94563.61
2023-04-17T02:14:58.688Z,94558.08
2023-04-17T02:17:27.551Z,94557.14
2023-04-17T02:19:56.616Z,94562.45
2023-04-17T02:22:25.654Z,94557.90
2023-04-17T02:24:54.335Z,94554.09
2023-04-17T02:27:22.999Z,94553.91
2023-04-17T02:29:51.639Z,94555.42
2023-04-17T02:32:20.231Z,94557.14
2023-04-17T02:34:49.002Z,94547.41
2023-04-17T02:37:17.712Z,94553.72
2023-04-17T02:39:46.382Z,94556.56
2023-04-17T02:42:14.991Z,94551.23
2023-04-17T02:44:43.740Z,94552.94
2023-04-17T02:47:12.416Z,94560.91
2023-04-17T02:49:41.960Z,94562.42
2023-04-17T02:52:11.091Z,94556.13
2023-04-17T02:54:39.806Z,94561.06
2023-04-17T02:57:08.434Z,94556.71
2023-04-17T02:59:37.141Z,94564.32
2023-04-17T03:02:06.149Z,94558.80
2023-04-17T03:04:38.953Z,94565.64
2023-04-17T03:07:11.263Z,94565.06
2023-04-17T03:09:39.512Z,94563.75
2023-04-17T03:12:11.154Z,94561.64
2023-04-17T03:14:39.925Z,94564.70
2023-04-17T03:17:09.613Z,94568.70
2023-04-17T03:19:38.501Z,94563.19
2023-04-17T03:22:07.585Z,94561.66
2023-04-17T03:24:36.459Z,94565.65
2023-04-17T03:27:05.543Z,94567.95
2023-04-17T03:29:34.336Z,94573.27
2023-04-17T03:32:03.371Z,94570.62
2023-04-17T03:34:32.935Z,94570.80
2023-04-17T03:37:01.637Z,94570.42
2023-04-17T03:39:30.423Z,94569.47
2023-04-17T03:42:02.184Z,94574.83
2023-04-17T03:44:31.108Z,94571.79
2023-04-17T03:46:59.978Z,94570.28
2023-04-17T03:49:29.898Z,94570.64
2023-04-17T03:51:58.595Z,94574.83
2023-04-17T03:54:27.504Z,94576.94
2023-04-17T03:56:57.123Z,94579.04
2023-04-17T03:59:25.976Z,94578.83
2023-04-17T04:01:54.664Z,94578.27
2023-04-17T04:04:24.006Z,94582.02
2023-04-17T04:06:54.613Z,94582.40
2023-04-17T04:09:28.095Z,94572.30
2023-04-17T04:11:57.766Z,94577.84
2023-04-17T04:14:26.529Z,94571.73
2023-04-17T04:16:55.308Z,94574.79
2023-04-17T04:19:26.663Z,94578.80
2023-04-17T04:21:55.587Z,94575.19
2023-04-17T04:24:25.724Z,94577.08
2023-04-17T04:26:54.574Z,94574.78
2023-04-17T04:29:24.902Z,94582.41
2023-04-17T04:31:53.821Z,94585.27
2023-04-17T04:34:26.270Z,94582.61
2023-04-17T04:36:55.010Z,94589.27
2023-04-17T04:39:23.888Z,94586.27
2023-04-17T04:41:53.231Z,94590.78
2023-04-17T04:44:21.988Z,94591.97
2023-04-17T04:46:52.320Z,94597.11
2023-04-17T04:49:21.087Z,94596.18
2023-04-17T04:51:50.123Z,94595.40
2023-04-17T04:54:20.727Z,94599.78
2023-04-17T04:56:50.837Z,94597.69
2023-04-17T04:59:19.594Z,94598.46
2023-04-17T05:01:48.476Z,94599.21
2023-04-17T05:04:17.366Z,94599.20
2023-04-17T05:06:46.326Z,94601.46
2023-04-17T05:09:17.246Z,94601.22
2023-04-17T05:11:46.251Z,94602.19
2023-04-17T05:14:15.104Z,94604.20
2023-04-17T05:16:43.970Z,94604.93
2023-04-17T05:19:13.120Z,94611.21
2023-04-17T05:21:42.067Z,94602.56
2023-04-17T05:24:14.050Z,94608.14
2023-04-17T05:26:42.828Z,94615.95
2023-04-17T05:29:11.840Z,94609.81
2023-04-17T05:31:43.107Z,94613.42
2023-04-17T05:34:11.951Z,94608.27
2023-04-17T05:39:53.080Z,94603.83
2023-04-17T05:42:24.121Z,94608.62
2023-04-17T05:44:57.874Z,94604.66
2023-04-17T05:47:33.514Z,94613.22
2023-04-17T05:50:09.594Z,94609.59
2023-04-17T05:52:49.197Z,94609.17
2023-04-17T05:55:19.748Z,94617.19
2023-04-17T05:57:48.697Z,94612.15
2023-04-17T06:00:17.910Z,94621.60
2023-04-17T06:02:46.717Z,94620.08
2023-04-17T06:05:25.391Z,94623.47
2023-04-17T06:07:54.372Z,94622.09
2023-04-17T06:10:23.288Z,94626.80
2023-04-17T06:12:52.378Z,94633.31
2023-04-17T06:15:24.508Z,94633.20
2023-04-17T06:17:56.478Z,94630.77
2023-04-17T06:20:25.115Z,94636.58
2023-04-17T06:22:55.344Z,94640.80
2023-04-17T06:28:23.473Z,94642.87
2023-04-17T06:30:52.615Z,94644.59
2023-04-17T06:33:21.665Z,94648.84
2023-04-17T06:35:52.574Z,94651.56
2023-04-17T06:38:25.743Z,94650.50
2023-04-17T06:40:57.678Z,94654.66
2023-04-17T06:43:35.635Z,94655.27
2023-04-17T06:46:05.978Z,94656.38
2023-04-17T06:48:44.023Z,94656.27
2023-04-17T06:51:12.968Z,94653.34
2023-04-17T06:53:42.048Z,94656.76
2023-04-17T06:56:13.398Z,94657.94
2023-04-17T06:58:47.039Z,94649.60
2023-04-17T07:01:22.260Z,94654.46
2023-04-17T07:03:51.308Z,94652.06
2023-04-17T07:06:20.248Z,94651.57
2023-04-17T07:08:49.067Z,94646.83
2023-04-17T07:11:18.047Z,94654.95
2023-04-17T07:13:46.939Z,94658.94
2023-04-17T07:16:16.427Z,94657.06
2023-04-17T07:18:45.597Z,94653.75
2023-04-17T07:21:14.354Z,94658.89
2023-04-17T07:23:45.686Z,94663.56
2023-04-17T07:26:14.688Z,94664.13
2023-04-17T07:28:44.636Z,94661.68
2023-04-17T07:31:13.495Z,94669.03
2023-04-17T07:33:42.272Z,94667.30
2023-04-17T07:36:12.168Z,94664.93
2023-04-17T07:38:42.404Z,94663.94
2023-04-17T07:41:12.654Z,94664.53
2023-04-17T07:43:41.336Z,94658.66
2023-04-17T07:46:10.096Z,94659.21
2023-04-17T07:48:38.942Z,94659.11
2023-04-17T07:51:08.565Z,94664.47
2023-04-17T07:53:39.285Z,94660.67
2023-04-17T07:56:08.052Z,94672.93
2023-04-17T07:58:36.861Z,94667.94
2023-04-17T08:01:06.115Z,94664.27
2023-04-17T08:03:35.134Z,94670.88
2023-04-17T08:06:04.314Z,94659.88
2023-04-17T08:08:33.420Z,94674.93
2023-04-17T08:11:02.287Z,94666.55
2023-04-17T08:13:34.227Z,94668.14
2023-04-17T08:16:04.740Z,94670.25
2023-04-17T08:18:33.723Z,94671.72
2023-04-17T08:21:02.476Z,94670.27
2023-04-17T08:23:31.471Z,94671.79
2023-04-17T08:26:00.157Z,94664.70
2023-04-17T08:28:29.155Z,94665.52
2023-04-17T08:30:59.670Z,94668.91
2023-04-17T08:33:28.549Z,94669.28
2023-04-17T08:35:57.437Z,94668.44
2023-04-17T08:38:27.541Z,94665.41
2023-04-17T08:41:02.008Z,94667.56
2023-04-17T08:43:33.038Z,94665.08
2023-04-17T08:46:03.748Z,94667.39
2023-04-17T08:48:32.716Z,94671.28
2023-04-17T08:51:03.540Z,94662.20
2023-04-17T08:53:33.096Z,94663.80
2023-04-17T08:56:09.473Z,94667.58
2023-04-17T08:58:38.601Z,94666.64
2023-04-17T09:01:11.910Z,94663.48
2023-04-17T09:03:45.219Z,94670.73
2023-04-17T09:06:15.531Z,94668.69
2023-04-17T09:08:59.322Z,94666.05
2023-04-17T09:11:28.903Z,94669.77
2023-04-17T09:13:57.802Z,94669.98
2023-04-17T09:16:28.328Z,94669.48
2023-04-17T09:19:09.420Z,94664.09
2023-04-17T09:21:38.380Z,94659.77
2023-04-17T09:24:07.669Z,94661.52
2023-04-17T09:26:45.387Z,94662.44
2023-04-17T09:29:25.009Z,94661.03
2023-04-17T09:31:54.173Z,94655.06
2023-04-17T09:34:23.077Z,94649.35
2023-04-17T09:36:57.301Z,94656.64
2023-04-17T09:39:26.364Z,94668.95
2023-04-17T09:42:06.439Z,94671.42
2023-04-17T09:44:37.094Z,94678.48
2023-04-17T09:47:07.999Z,94673.56
2023-04-17T09:49:43.975Z,94670.26
2023-04-17T09:52:13.398Z,94667.05
2023-04-17T09:54:44.594Z,94666.75
2023-04-17T09:57:16.582Z,94662.98
2023-04-17T09:59:48.425Z,94661.81
2023-04-17T10:02:19.138Z,94661.39
2023-04-17T10:04:48.718Z,94665.23
2023-04-17T10:07:18.712Z,94660.05
2023-04-17T10:09:47.968Z,94659.69
2023-04-17T10:16:37.560Z,94654.86
2023-04-17T10:19:36.784Z,94655.55
2023-04-17T10:22:20.513Z,94651.05
2023-04-17T10:24:54.888Z,94655.16
2023-04-17T10:27:31.470Z,94649.84
2023-04-17T10:30:02.426Z,94647.17
2023-04-17T10:32:32.735Z,94648.77
2023-04-17T10:35:23.070Z,94646.80
2023-04-17T10:37:54.821Z,94648.41
2023-04-17T10:40:25.984Z,94637.97
2023-04-17T10:43:06.350Z,94640.66
2023-04-17T10:45:57.813Z,94643.47
2023-04-17T10:48:36.726Z,94636.52
2023-04-17T10:51:28.054Z,94562.62
2023-04-17T10:54:08.696Z,94634.06
2023-04-17T10:56:43.083Z,94639.13
2023-04-17T10:59:20.806Z,94636.11
2023-04-17T11:01:53.085Z,94632.23
2023-04-17T11:04:27.754Z,94623.23
2023-04-17T11:06:56.587Z,94624.94
2023-04-17T11:09:28.251Z,94622.60
2023-04-17T11:12:04.176Z,94626.56
2023-04-17T11:14:32.919Z,94625.09
2023-04-17T11:17:02.891Z,94625.41
2023-04-17T11:19:33.845Z,94618.83
2023-04-17T11:22:07.105Z,94623.95
2023-04-17T11:31:41.224Z,94626.27
2023-04-17T11:34:14.427Z,94624.00
2023-04-17T11:39:51.563Z,94616.73
2023-04-17T11:42:32.894Z,94611.02
2023-04-17T11:45:07.009Z,94616.56
2023-04-17T11:54:11.791Z,94605.97
2023-04-17T11:56:44.260Z,94601.75
2023-04-17T11:59:13.278Z,94595.77
2023-04-17T12:02:03.193Z,94591.00
2023-04-17T12:04:38.169Z,94595.11
2023-04-17T12:07:08.647Z,94596.30
2023-04-17T12:09:38.185Z,94584.84
2023-04-17T12:12:08.559Z,94590.80
2023-04-17T12:14:37.522Z,94592.73
2023-04-17T12:17:06.414Z,94598.83
2023-04-17T12:19:35.175Z,94589.63
2023-04-17T12:22:05.928Z,94592.78
2023-04-17T12:24:34.574Z,94587.41
2023-04-17T12:27:09.741Z,94583.31
2023-04-17T12:29:45.092Z,94577.69
2023-04-17T12:36:33.360Z,94585.46
2023-04-17T12:39:04.979Z,94577.59
2023-04-17T12:41:38.055Z,94591.55
2023-04-17T12:44:07.258Z,94584.53
2023-04-17T12:46:40.456Z,94578.66
2023-04-17T12:49:32.822Z,94589.71
2023-04-17T12:52:04.879Z,94582.28
2023-04-17T12:54:35.463Z,94574.75
2023-04-17T12:57:10.194Z,94574.25
2023-04-17T12:59:41.751Z,94577.13
2023-04-17T13:02:10.940Z,94581.82
2023-04-17T13:04:44.361Z,94576.34
2023-04-17T13:07:16.265Z,94577.20
2023-04-17T13:09:45.429Z,94577.88
2023-04-17T13:12:15.571Z,94578.03
2023-04-17T13:14:44.291Z,94580.00
2023-04-17T13:17:16.384Z,94580.42
2023-04-17T13:19:45.982Z,94578.01
2023-04-17T13:22:19.512Z,94585.98
2023-04-17T13:24:48.262Z,94581.78
2023-04-17T13:27:17.022Z,94579.65
2023-04-17T13:29:45.987Z,94559.28
2023-04-17T13:32:27.115Z,94563.97
2023-04-17T13:35:16.715Z,94563.48
2023-04-17T13:37:51.721Z,94559.63
2023-04-17T13:40:26.492Z,94559.03
2023-04-17T14:01:33.475Z,94562.48
2023-04-17T14:04:05.841Z,94559.05
2023-04-17T14:06:35.192Z,94560.45
2023-04-17T14:09:05.440Z,94561.34
2023-04-17T14:11:34.348Z,94560.16
2023-04-17T14:14:08.862Z,94562.92
2023-04-17T14:16:40.117Z,94558.45
2023-04-17T14:19:14.766Z,94564.40
2023-04-17T14:21:46.784Z,94560.75
2023-04-17T14:24:17.200Z,94556.84
2023-04-17T14:26:47.730Z,94562.77
2023-04-17T14:36:04.458Z,94570.81
2023-04-17T14:38:34.592Z,94564.75
2023-04-17T14:41:03.391Z,94558.09
2023-04-17T14:43:32.544Z,94556.52
2023-04-17T14:46:10.282Z,94561.61
2023-04-17T14:48:52.234Z,94565.28
2023-04-17T14:51:16.977Z,94562.39
2023-04-17T14:56:23.235Z,94564.61
2023-04-17T14:58:51.956Z,94565.20
2023-04-17T15:01:20.847Z,94562.80
2023-04-17T15:03:49.888Z,94566.51
2023-04-17T15:06:18.948Z,94559.11
2023-04-17T15:08:50.475Z,94557.27
2023-04-17T15:11:22.194Z,94558.94
2023-04-17T15:13:50.862Z,94558.78
2023-04-17T15:16:19.650Z,94564.66
2023-04-17T15:18:56.764Z,94563.15
2023-04-17T15:21:36.557Z,94491.06
2023-04-17T15:24:05.908Z,94565.48
2023-04-17T15:26:37.583Z,94561.44
2023-04-17T15:29:06.155Z,94557.38
2023-04-17T15:31:35.109Z,94558.06
2023-04-17T15:34:03.976Z,94553.73
2023-04-17T15:36:32.987Z,94550.96
2023-04-17T15:39:01.882Z,94559.47
2023-04-17T15:41:30.665Z,94556.76
2023-04-17T15:43:59.540Z,94552.22
2023-04-17T15:46:31.890Z,94553.48
2023-04-17T15:49:08.405Z,94550.99
2023-04-17T15:51:35.825Z,94555.24
2023-04-17T15:54:04.670Z,94561.42
2023-04-17T15:56:35.221Z,94559.77
2023-04-17T15:59:08.100Z,94556.58
2023-04-17T16:01:38.175Z,94557.98
2023-04-17T16:04:07.394Z,94557.39
2023-04-17T16:06:36.477Z,94551.86
2023-04-17T16:09:05.684Z,94558.78
2023-04-17T16:11:34.452Z,94560.38
2023-04-17T16:14:03.301Z,94569.28
2023-04-17T16:16:32.280Z,94568.94
2023-04-17T16:19:00.983Z,94571.73
2023-04-17T16:21:29.701Z,94569.35
2023-04-17T16:23:59.934Z,94572.20
2023-04-17T16:26:30.191Z,94570.70
2023-04-17T16:28:58.962Z,94576.70
2023-04-17T16:31:28.387Z,94576.95
2023-04-17T16:33:57.127Z,94579.11
2023-04-17T16:36:26.232Z,94580.78
2023-04-17T16:38:55.246Z,94576.59
2023-04-17T16:41:24.115Z,94582.14
2023-04-17T16:43:52.868Z,94576.17
2023-04-17T16:46:31.742Z,94577.52
2023-04-17T16:48:56.438Z,94586.64
2023-04-17T16:51:26.518Z,94585.76
2023-04-17T16:53:55.507Z,94590.17
2023-04-17T16:56:24.228Z,94600.31
2023-04-17T16:59:00.411Z,94596.53
2023-04-17T17:01:29.826Z,94598.16
2023-04-17T17:03:59.152Z,94605.30
2023-04-17T17:06:31.229Z,94601.93
2023-04-17T17:09:02.737Z,94605.25
2023-04-17T17:11:31.786Z,94610.33
2023-04-17T17:14:01.806Z,94608.11
2023-04-17T17:16:33.191Z,94611.58
2023-04-17T17:19:02.219Z,94628.16
2023-04-17T17:21:33.362Z,94630.75
2023-04-17T17:24:02.154Z,94640.88
2023-04-17T17:26:30.992Z,94643.71
2023-04-17T17:28:59.803Z,94643.21
2023-04-17T17:31:35.487Z,94646.53
2023-04-17T17:34:24.601Z,94651.45
2023-04-17T17:40:49.058Z,94656.08
2023-04-17T18:00:32.809Z,94682.86
2023-04-17T18:03:03.955Z,94687.52
2023-04-17T18:05:37.622Z,94697.09
2023-04-17T18:08:14.063Z,94700.75
2023-04-17T18:10:50.653Z,94712.59
2023-04-17T18:13:29.270Z,94716.66
2023-04-17T18:16:12.955Z,94718.94
2023-04-17T18:19:06.011Z,94717.23
2023-04-17T18:24:34.903Z,94719.85
2023-04-17T18:33:33.146Z,94722.71
2023-04-17T18:39:45.866Z,94730.98
2023-04-17T18:42:16.781Z,94734.00
2023-04-17T18:45:25.061Z,94732.46
2023-04-17T18:47:41.799Z,94741.05
2023-04-17T18:50:15.151Z,94735.86
2023-04-17T18:52:50.247Z,94739.88
2023-04-17T18:55:24.724Z,94741.63
2023-04-17T18:57:59.201Z,94742.70
2023-04-17T19:00:30.880Z,94745.92
2023-04-17T19:03:05.519Z,94745.34
2023-04-17T19:05:39.235Z,94741.55
2023-04-17T19:31:16.291Z,94740.08
2023-04-17T19:33:45.442Z,94736.25
2023-04-17T19:36:16.087Z,94745.01
2023-04-17T19:38:45.369Z,94741.76
2023-04-17T19:41:28.498Z,94739.11
2023-04-17T19:43:57.380Z,94743.55
2023-04-17T19:46:27.440Z,94738.62
2023-04-17T19:52:37.925Z,94741.51
2023-04-17T19:55:09.485Z,94743.75
2023-04-17T19:57:39.344Z,94739.37
2023-04-17T20:00:11.378Z,94743.93
2023-04-17T20:02:42.381Z,94746.96
2023-04-17T20:05:13.736Z,94743.97
2023-04-17T20:07:44.169Z,94739.17
2023-04-17T20:10:14.626Z,94750.45
2023-04-17T20:12:43.629Z,94747.80
2023-04-17T20:15:20.901Z,94748.17
2023-04-17T20:18:01.758Z,94749.50
2023-04-17T20:20:29.039Z,94750.09
2023-04-17T20:29:27.611Z,94746.24
2023-04-17T20:31:49.691Z,94745.48
2023-04-17T20:34:18.949Z,94749.67
2023-04-17T20:36:51.485Z,94750.84
2023-04-17T20:56:48.963Z,94752.19
2023-04-17T20:59:17.884Z,94756.03
2023-04-17T21:01:56.055Z,94754.31
2023-04-17T21:04:27.206Z,94759.27
2023-04-17T21:06:56.877Z,94751.66
2023-04-17T21:09:27.634Z,94749.17
2023-04-17T21:11:57.869Z,94749.35
2023-04-17T21:14:29.579Z,94751.27
2023-04-17T21:17:03.900Z,94748.59
2023-04-17T21:19:34.232Z,94752.98
2023-04-17T21:22:06.209Z,94751.27
2023-04-17T21:24:37.426Z,94751.45
2023-04-17T21:27:06.378Z,94753.94
2023-04-17T21:29:38.743Z,94753.73
2023-04-17T21:32:12.263Z,94753.19
2023-04-17T21:34:41.509Z,94737.92
2023-04-17T21:37:10.269Z,94752.04
2023-04-17T21:39:39.043Z,94750.70
2023-04-17T21:42:10.099Z,94753.38
2023-04-17T21:44:38.897Z,94749.36
2023-04-17T21:47:08.395Z,94761.95
2023-04-17T21:49:37.235Z,94750.13
2023-04-17T21:52:07.402Z,94756.63
2023-04-17T21:54:38.937Z,94754.70
2023-04-17T21:57:07.765Z,94752.42
2023-04-17T21:59:36.519Z,94753.36
2023-04-17T22:02:08.436Z,94753.56
2023-04-17T22:04:37.331Z,94747.64
2023-04-17T22:07:07.709Z,94755.29
2023-04-17T22:09:36.594Z,94748.20
2023-04-17T22:12:13.457Z,94749.18
2023-04-17T22:14:42.126Z,94747.66
2023-04-17T22:17:12.530Z,94751.84
2023-04-17T22:19:41.222Z,94751.27
2023-04-17T22:22:10.129Z,94754.51
2023-04-17T22:24:42.087Z,94748.78
2023-04-17T22:27:13.242Z,94746.70
2023-04-17T22:29:41.905Z,94746.70
2023-04-17T22:32:10.681Z,94751.08
2023-04-17T22:34:41.887Z,94751.64
2023-04-17T22:37:09.667Z,94748.98
2023-04-17T22:39:38.245Z,94754.31
2023-04-17T22:42:07.347Z,94749.16
2023-04-17T22:44:36.675Z,94747.26
2023-04-17T22:47:05.603Z,94753.94
2023-04-17T22:49:35.875Z,94751.66
2023-04-17T22:52:08.047Z,94754.48
2023-04-17T22:54:38.840Z,94753.38
2023-04-17T22:57:07.566Z,94753.94
2023-04-17T22:59:36.281Z,94753.19
2023-04-17T23:02:05.169Z,94756.79
2023-04-17T23:10:59.450Z,94758.31
2023-04-17T23:13:31.660Z,94750.89
2023-04-17T23:16:04.724Z,94750.52
2023-04-17T23:18:33.499Z,94748.23
2023-04-17T23:21:02.341Z,94743.26
2023-04-17T23:23:31.208Z,94748.58
2023-04-17T23:25:59.911Z,94742.84
2023-04-17T23:28:30.329Z,94738.48
2023-04-17T23:30:59.588Z,94742.08
2023-04-17T23:33:28.433Z,94746.30
2023-04-17T23:35:57.115Z,94743.42
2023-04-17T23:38:27.576Z,94747.03
2023-04-17T23:41:00.676Z,94751.80
2023-04-17T23:43:29.592Z,94751.44
2023-04-17T23:46:00.053Z,94756.78
2023-04-17T23:48:28.920Z,94760.39
2023-04-17T23:50:57.760Z,94750.09
2023-04-17T23:53:26.752Z,94753.54
2023-04-17T23:55:55.575Z,94762.69
2023-04-17T23:58:26.038Z,94758.09
